Main page
METAR-TAF:

METAR-TAF

Airports :

Campbeltown Airport

Campbeltown, Scotland

latitude: 55-26-14N, longitude: 005-41-11W, elevation: 13 m

Current weather observation

The report was made 6 hours and 20 minutes ago, at 16:50 UTC
Wind 13 kt from the West/Northwest
Temperature 12°C
Humidity 82%
Pressure 1009 hPa
Visibility 10 km or more
Few clouds at a height of 2000 ft

METAR: EGEC 251650Z 29013KT 9999 FEW020 12/09 Q1009

Time: 00:10 (23:10 UTC)

Forecast

The report was made 9 hours and 8 minutes ago, at 14:02 UTC
Forecast valid from 25 at 15 UTC to 25 at 17 UTC
Wind 18 kt from the West
Visibility 10 km or more
Few clouds at a height of 2000 ft
Scattered clouds at a height of 4500 ft
Probability 30% :
Temporary
from 25 at 15 UTC to 25 at 17 UTC
Wind 21 kt from the West with gusts up to 31 kt
Visibility: 6000 m
rain showers

TAF: EGEC 251402Z 2515/2517 27018KT 9999 FEW020 SCT045 PROB30 TEMPO 2515/2517 28021G31KT 6000 SHRA

Weather observations and forecasts of more than 4000 airports (METAR and TAF reports).

The available stations are represented by yellow and red dots on the map.

Hover mouse over dot to see the name of the station.

Then click to see weather observations and forecasts.

To change the map : click on the green buttons with a black cross to zoom in, on the green button with a dash to zoom out, or on the green arrows for adjacent maps.


METAR-TAF: